Volcan De Teneguia — ECLA — position and weather

sailwx.info

Track history (hours):
 
Tides and Currents Weather Stations Pressure Air Temp Water Temp Dewpoint Dewpoint Depression Visibility Wind Speed Wind Dir Waves Ship Positions

Volcan De Teneguia

Last reported at 2017-Mar-24 17:32 UTC. Time now 2017-Mar-24 22:06 UTC.
Position N 28°27' W 016°10'.

Length 145 m; draft 5.3 m.

Type: Cargo ship. MMSI: 225317000.

Date/timePositionNaut miles runAvg speedWind from/ knotsBaromVisibWave heightAir tempDewpointWater temp
2017-Mar-24 17:32N 28°27' W 016°10'1414.0
2017-Mar-24 16:32N 28°22' W 015°55'1414.1
2017-Mar-24 15:31N 28°17' W 015°39'1613.4
2017-Mar-24 14:19N 28°11' W 015°23'4 0.5
2017-Mar-24 06:21N 28°07' W 015°23'6 6.3
2017-Mar-24 05:20N 28°13' W 015°26'1010.1
2017-Mar-24 04:19N 28°14' W 015°38'8 9.9
2017-Mar-24 03:31N 28°15' W 015°47'10 8.1
2017-Mar-24 02:21N 28°16' W 015°58'911.0
2017-Mar-24 01:31N 28°22' W 016°05'10 1.4
2017-Mar-23 18:29N 28°29' W 016°14'  
2017-Mar-20 01:26N 35°51' W 007°13'1214.0
2017-Mar-20 00:33N 35°43' W 007°24'1413.7
2017-Mar-19 23:32N 35°33' W 007°37'1414.0
2017-Mar-19 22:32N 35°24' W 007°49'1514.1
2017-Mar-19 21:28N 35°13' W 008°02'57514.0
2017-Mar-18 04:15N 28°31' W 016°06'7 1.1
2017-Mar-17 22:10N 28°29' W 016°14'1 0.2
2017-Mar-17 18:27N 28°28' W 016°13'1213.3
2017-Mar-17 17:33N 28°23' W 016°01'1413.7
2017-Mar-17 16:32N 28°19' W 015°46'1713.7
2017-Mar-17 15:19N 28°14' W 015°28'6 0.8
2017-Mar-17 07:33N 28°08' W 015°25'6 6.3
2017-Mar-17 06:33N 28°13' W 015°29'1614.8
2017-Mar-17 05:28N 28°18' W 015°46'1414.9
2017-Mar-17 04:33N 28°23' W 016°01'11 1.5
2017-Mar-16 21:23N 28°29' W 016°11'  
Track history (hours):
 
Tides and Currents Weather Stations Pressure Air Temp Water Temp Dewpoint Dewpoint Depression Visibility Wind Speed Wind Dir Waves Ship Positions

Volcan De Teneguia

Last reported at 2017-Mar-24 17:32 UTC. Time now 2017-Mar-24 22:06 UTC.
Position N 28°27' W 016°10'.

Length 145 m; draft 5.3 m.

Type: Cargo ship. MMSI: 225317000.

Date/timePositionNaut miles runAvg speedWind from/ knotsBaromVisibWave heightAir tempDewpointWater temp
2017-Mar-24 17:32N 28°27' W 016°10'1414.0
2017-Mar-24 16:32N 28°22' W 015°55'1414.1
2017-Mar-24 15:31N 28°17' W 015°39'1613.4
2017-Mar-24 14:19N 28°11' W 015°23'4 0.5
2017-Mar-24 06:21N 28°07' W 015°23'6 6.3
2017-Mar-24 05:20N 28°13' W 015°26'1010.1
2017-Mar-24 04:19N 28°14' W 015°38'8 9.9
2017-Mar-24 03:31N 28°15' W 015°47'10 8.1
2017-Mar-24 02:21N 28°16' W 015°58'911.0
2017-Mar-24 01:31N 28°22' W 016°05'10 1.4
2017-Mar-23 18:29N 28°29' W 016°14'  
2017-Mar-20 01:26N 35°51' W 007°13'1214.0
2017-Mar-20 00:33N 35°43' W 007°24'1413.7
2017-Mar-19 23:32N 35°33' W 007°37'1414.0
2017-Mar-19 22:32N 35°24' W 007°49'1514.1
2017-Mar-19 21:28N 35°13' W 008°02'57514.0
2017-Mar-18 04:15N 28°31' W 016°06'7 1.1
2017-Mar-17 22:10N 28°29' W 016°14'1 0.2
2017-Mar-17 18:27N 28°28' W 016°13'1213.3
2017-Mar-17 17:33N 28°23' W 016°01'1413.7
2017-Mar-17 16:32N 28°19' W 015°46'1713.7
2017-Mar-17 15:19N 28°14' W 015°28'6 0.8
2017-Mar-17 07:33N 28°08' W 015°25'6 6.3
2017-Mar-17 06:33N 28°13' W 015°29'1614.8
2017-Mar-17 05:28N 28°18' W 015°46'1414.9
2017-Mar-17 04:33N 28°23' W 016°01'11 1.5
2017-Mar-16 21:23N 28°29' W 016°11'  

Dump ship's entire track history